createdAt,value
2022-09-09T00:02:21.176Z,5.95
2022-09-09T00:04:56.315Z,5.98
2022-09-09T00:07:31.547Z,5.99
2022-09-09T00:10:06.048Z,5.96
2022-09-09T00:12:39.168Z,5.95
2022-09-09T00:15:13.729Z,5.97
2022-09-09T00:17:46.129Z,5.96
2022-09-09T00:20:16.026Z,5.91
2022-09-09T00:22:50.529Z,5.96
2022-09-09T00:25:22.624Z,5.98
2022-09-09T00:27:51.959Z,5.99
2022-09-09T00:30:23.598Z,6.01
2022-09-09T00:32:55.301Z,5.98
2022-09-09T00:35:26.210Z,5.98
2022-09-09T00:37:58.351Z,6.03
2022-09-09T00:40:29.707Z,6.02
2022-09-09T00:43:15.309Z,6.02
2022-09-09T00:46:15.589Z,6.00
2022-09-09T00:48:52.631Z,6.06
2022-09-09T00:51:28.153Z,6.09
2022-09-09T00:54:17.969Z,6.01
2022-09-09T00:56:50.039Z,6.06
2022-09-09T00:59:28.575Z,6.08
2022-09-09T01:01:57.134Z,6.11
2022-09-09T01:04:32.051Z,6.14
2022-09-09T01:07:05.551Z,6.11
2022-09-09T01:09:44.801Z,6.13
2022-09-09T01:12:17.142Z,6.12
2022-09-09T01:14:49.797Z,6.07
2022-09-09T01:17:23.219Z,6.10
2022-09-09T01:20:06.421Z,6.13
2022-09-09T01:22:41.233Z,6.12
2022-09-09T01:25:31.321Z,6.13
2022-09-09T01:28:03.247Z,6.14
2022-09-09T01:30:31.459Z,6.12
2022-09-09T01:33:01.503Z,6.17
2022-09-09T01:35:40.830Z,6.18
2022-09-09T01:38:09.174Z,6.17
2022-09-09T01:40:37.239Z,6.18
2022-09-09T01:43:07.873Z,6.19
2022-09-09T01:45:36.336Z,6.18
2022-09-09T01:48:05.436Z,6.19
2022-09-09T01:50:33.950Z,6.19
2022-09-09T01:53:03.554Z,6.26
2022-09-09T01:55:34.241Z,6.26
2022-09-09T01:58:16.257Z,6.25
2022-09-09T02:00:47.602Z,6.29
2022-09-09T02:03:22.766Z,6.24
2022-09-09T02:05:57.711Z,6.18
2022-09-09T02:08:28.383Z,6.14
2022-09-09T02:10:59.243Z,6.15
2022-09-09T02:13:28.747Z,6.15
2022-09-09T02:16:00.189Z,6.14
2022-09-09T02:18:31.654Z,6.18
2022-09-09T02:21:00.606Z,6.16
2022-09-09T02:23:29.979Z,6.18
2022-09-09T02:26:08.486Z,6.14
2022-09-09T02:28:39.701Z,6.13
2022-09-09T02:31:08.204Z,6.13
2022-09-09T02:33:40.062Z,6.10
2022-09-09T02:36:10.076Z,6.13
2022-09-09T02:38:41.345Z,6.07
2022-09-09T02:41:09.488Z,6.07
2022-09-09T02:43:39.286Z,6.16
2022-09-09T02:46:29.186Z,6.13
2022-09-09T02:49:03.099Z,6.11
2022-09-09T02:51:38.885Z,6.08
2022-09-09T02:54:14.677Z,6.03
2022-09-09T02:56:46.457Z,6.03
2022-09-09T02:59:16.046Z,6.04
2022-09-09T03:01:45.136Z,6.00
2022-09-09T03:04:13.234Z,5.96
2022-09-09T03:06:41.511Z,5.95
2022-09-09T03:09:11.570Z,6.00
2022-09-09T03:11:40.603Z,5.99
2022-09-09T03:14:09.699Z,5.98
2022-09-09T03:16:39.296Z,5.95
2022-09-09T03:19:07.422Z,5.91
2022-09-09T03:21:38.049Z,5.90
2022-09-09T03:24:07.602Z,5.93
2022-09-09T03:26:36.006Z,5.86
2022-09-09T03:29:04.242Z,5.87
2022-09-09T03:31:32.380Z,5.82
2022-09-09T03:34:02.052Z,5.82
2022-09-09T03:36:32.423Z,5.87
2022-09-09T03:39:01.410Z,5.85
2022-09-09T03:41:29.776Z,5.84
2022-09-09T03:43:58.286Z,5.95
2022-09-09T03:46:27.642Z,6.00
2022-09-09T03:48:58.402Z,6.01
2022-09-09T03:51:27.886Z,6.02
2022-09-09T03:53:59.323Z,6.07
2022-09-09T03:56:27.569Z,6.09
2022-09-09T03:58:58.621Z,6.17
2022-09-09T04:01:26.851Z,6.18
2022-09-09T04:03:56.310Z,6.24
2022-09-09T04:06:24.370Z,6.29
2022-09-09T04:08:54.037Z,6.32
2022-09-09T04:11:22.457Z,6.40
2022-09-09T04:13:51.067Z,6.42
2022-09-09T04:16:19.313Z,6.44
2022-09-09T04:18:48.187Z,6.53
2022-09-09T04:21:16.542Z,6.54
2022-09-09T04:23:44.798Z,6.60
2022-09-09T04:26:14.263Z,6.74
2022-09-09T04:28:42.545Z,6.79
2022-09-09T04:31:12.672Z,6.75
2022-09-09T04:33:41.437Z,6.89
2022-09-09T04:36:10.102Z,6.96
2022-09-09T04:38:38.749Z,6.94
2022-09-09T04:41:07.567Z,7.09
2022-09-09T04:43:38.464Z,7.18
2022-09-09T04:46:06.943Z,7.28
2022-09-09T04:48:35.139Z,7.36
2022-09-09T04:51:05.937Z,7.40
2022-09-09T04:53:35.167Z,7.48
2022-09-09T04:56:04.933Z,7.58
2022-09-09T04:58:33.376Z,7.85
2022-09-09T05:01:10.394Z,8.41
2022-09-09T05:03:38.840Z,8.47
2022-09-09T05:06:10.264Z,8.39
2022-09-09T05:08:39.314Z,8.37
2022-09-09T05:11:16.577Z,8.58
2022-09-09T05:13:45.278Z,8.80
2022-09-09T05:16:16.070Z,10.26
2022-09-09T05:18:46.263Z,11.00
2022-09-09T05:21:17.559Z,10.22
2022-09-09T05:23:47.157Z,9.93
2022-09-09T05:26:17.758Z,9.41
2022-09-09T05:28:46.632Z,9.19
2022-09-09T05:31:17.763Z,8.95
2022-09-09T05:33:48.035Z,9.00
2022-09-09T05:36:18.149Z,8.98
2022-09-09T05:38:46.695Z,9.19
2022-09-09T05:41:16.744Z,9.06
2022-09-09T05:43:48.001Z,8.94
2022-09-09T05:46:19.384Z,9.03
2022-09-09T05:48:49.280Z,8.99
2022-09-09T05:51:19.579Z,9.13
2022-09-09T05:53:48.249Z,9.13
2022-09-09T05:56:18.694Z,9.18
2022-09-09T05:58:48.013Z,9.25
2022-09-09T06:01:19.139Z,9.32
2022-09-09T06:03:48.586Z,9.44
2022-09-09T06:06:18.385Z,9.44
2022-09-09T06:08:47.342Z,9.48
2022-09-09T06:11:17.688Z,9.61
2022-09-09T06:13:46.879Z,9.94
2022-09-09T06:16:18.221Z,10.16
2022-09-09T06:18:47.032Z,10.29
2022-09-09T06:21:18.518Z,10.20
2022-09-09T06:23:47.019Z,10.35
2022-09-09T06:26:18.414Z,10.74
2022-09-09T06:28:47.195Z,10.86
2022-09-09T06:31:25.804Z,10.91
2022-09-09T06:33:56.853Z,11.03
2022-09-09T06:36:27.856Z,11.29
2022-09-09T06:38:59.723Z,12.19
2022-09-09T06:41:32.389Z,13.79
2022-09-09T06:44:00.696Z,12.81
2022-09-09T06:46:32.213Z,12.11
2022-09-09T06:49:01.107Z,11.78
2022-09-09T06:51:33.525Z,11.28
2022-09-09T06:54:03.370Z,11.22
2022-09-09T06:56:32.866Z,11.66
2022-09-09T06:59:02.331Z,11.54
2022-09-09T07:01:33.867Z,11.02
2022-09-09T07:04:03.070Z,11.07
2022-09-09T07:06:32.326Z,11.77
2022-09-09T07:09:01.974Z,11.82
2022-09-09T07:11:31.705Z,11.64
2022-09-09T07:14:01.202Z,11.48
2022-09-09T07:16:33.003Z,12.51
2022-09-09T07:19:01.719Z,12.63
2022-09-09T07:21:31.022Z,11.88
2022-09-09T07:23:59.465Z,11.31
2022-09-09T07:26:29.137Z,11.36
2022-09-09T07:28:58.263Z,11.22
2022-09-09T07:31:27.871Z,12.19
2022-09-09T07:33:57.601Z,12.93
2022-09-09T07:36:32.519Z,13.49
2022-09-09T07:39:03.036Z,14.08
2022-09-09T07:41:33.814Z,13.17
2022-09-09T07:44:02.393Z,12.15
2022-09-09T07:46:30.709Z,12.26
2022-09-09T07:49:00.406Z,12.32
2022-09-09T07:51:30.421Z,12.14
2022-09-09T07:54:00.461Z,11.98
2022-09-09T07:56:29.576Z,11.81
2022-09-09T07:59:02.343Z,11.96
2022-09-09T08:01:33.497Z,11.78
2022-09-09T08:04:05.866Z,11.61
2022-09-09T08:06:36.793Z,11.55
2022-09-09T08:09:05.296Z,11.60
2022-09-09T08:11:38.603Z,11.73
2022-09-09T08:14:08.521Z,11.52
2022-09-09T08:16:39.342Z,11.44
2022-09-09T08:19:09.162Z,12.26
2022-09-09T08:21:39.488Z,12.78
2022-09-09T08:24:08.436Z,12.41
2022-09-09T08:26:38.380Z,11.68
2022-09-09T08:29:08.935Z,11.49
2022-09-09T08:31:39.248Z,12.01
2022-09-09T08:34:10.254Z,13.06
2022-09-09T08:36:40.261Z,13.77
2022-09-09T08:39:09.986Z,14.28
2022-09-09T08:42:06.306Z,14.09
2022-09-09T08:44:48.606Z,13.40
2022-09-09T08:47:24.877Z,12.95
2022-09-09T08:50:14.816Z,12.69
2022-09-09T08:52:48.779Z,12.44
2022-09-09T08:55:25.268Z,12.28
2022-09-09T08:57:55.282Z,12.46
2022-09-09T09:00:25.509Z,12.89
2022-09-09T09:03:00.962Z,12.68
2022-09-09T09:05:34.876Z,12.33
2022-09-09T09:08:10.877Z,12.44
2022-09-09T09:10:49.084Z,13.31
2022-09-09T09:13:21.856Z,13.89
2022-09-09T09:15:55.079Z,14.46
2022-09-09T09:18:22.973Z,13.93
2022-09-09T09:21:01.944Z,13.00
2022-09-09T09:23:40.934Z,12.42
2022-09-09T09:26:12.024Z,12.67
2022-09-09T09:28:40.645Z,13.51
2022-09-09T09:31:09.864Z,14.16
2022-09-09T09:33:47.738Z,13.99
2022-09-09T09:36:18.136Z,13.76
2022-09-09T09:41:46.786Z,12.80
2022-09-09T09:44:25.848Z,12.52
2022-09-09T09:46:54.303Z,12.34
2022-09-09T09:49:22.458Z,12.17
2022-09-09T09:51:53.507Z,12.01
2022-09-09T09:54:28.681Z,12.57
2022-09-09T09:56:56.956Z,13.32
2022-09-09T09:59:39.629Z,13.67
2022-09-09T10:02:22.181Z,13.90
2022-09-09T10:05:03.612Z,14.39
2022-09-09T10:07:34.518Z,14.11
2022-09-09T10:10:03.049Z,13.70
2022-09-09T10:12:40.217Z,13.24
2022-09-09T10:15:18.075Z,12.90
2022-09-09T10:17:59.778Z,12.63
2022-09-09T10:20:37.035Z,13.31
2022-09-09T10:23:14.433Z,13.83
2022-09-09T10:26:04.143Z,13.43
2022-09-09T10:29:00.133Z,12.99
2022-09-09T10:31:34.362Z,12.78
2022-09-09T10:34:09.401Z,12.66
2022-09-09T10:36:40.685Z,12.47
2022-09-09T10:39:19.238Z,13.16
2022-09-09T10:41:52.749Z,14.06
2022-09-09T10:44:30.842Z,14.08
2022-09-09T10:47:11.655Z,14.06
2022-09-09T10:50:12.556Z,13.96
2022-09-09T10:52:46.881Z,13.45
2022-09-09T10:55:19.543Z,13.03
2022-09-09T10:57:49.866Z,12.84
2022-09-09T11:00:20.640Z,12.64
2022-09-09T11:02:51.630Z,12.52
2022-09-09T11:05:22.966Z,12.81
2022-09-09T11:07:57.390Z,13.47
2022-09-09T11:10:29.335Z,14.28
2022-09-09T11:13:04.081Z,14.74
2022-09-09T11:15:38.357Z,15.37
2022-09-09T11:18:07.190Z,15.27
2022-09-09T11:20:36.033Z,14.96
2022-09-09T11:23:06.655Z,14.37
2022-09-09T11:25:39.315Z,14.07
2022-09-09T11:28:19.146Z,14.27
2022-09-09T11:30:56.958Z,13.79
2022-09-09T11:33:58.374Z,13.28
2022-09-09T11:36:45.366Z,13.05
2022-09-09T11:39:50.334Z,12.96
2022-09-09T11:42:22.773Z,13.22
2022-09-09T11:44:51.216Z,13.44
2022-09-09T11:47:30.519Z,13.98
2022-09-09T11:50:10.705Z,13.96
2022-09-09T11:52:41.503Z,13.75
2022-09-09T11:55:14.250Z,13.72
2022-09-09T11:57:48.929Z,13.48
2022-09-09T12:00:35.399Z,13.43
2022-09-09T12:03:03.530Z,13.30
2022-09-09T12:05:39.833Z,12.88
2022-09-09T12:08:08.852Z,12.99
2022-09-09T12:10:38.734Z,13.30
2022-09-09T12:13:21.816Z,13.50
2022-09-09T12:15:51.707Z,13.83
2022-09-09T12:18:26.460Z,14.04
2022-09-09T12:20:59.785Z,14.33
2022-09-09T12:23:34.133Z,14.47
2022-09-09T12:26:14.219Z,14.39
2022-09-09T12:28:54.886Z,14.35
2022-09-09T12:31:26.715Z,14.38
2022-09-09T12:33:54.901Z,14.17
2022-09-09T12:36:26.086Z,14.29
2022-09-09T12:38:55.879Z,14.12
2022-09-09T12:41:25.816Z,13.93
2022-09-09T12:44:07.082Z,13.87
2022-09-09T12:46:38.447Z,13.59
2022-09-09T12:49:07.729Z,13.46
2022-09-09T12:51:36.053Z,13.26
2022-09-09T12:54:04.447Z,13.05
2022-09-09T12:56:37.152Z,13.06
2022-09-09T12:59:06.684Z,13.10
2022-09-09T13:01:35.816Z,13.11
2022-09-09T13:04:04.412Z,13.05
2022-09-09T13:06:34.296Z,13.10
2022-09-09T13:09:03.899Z,13.16
2022-09-09T13:11:34.334Z,13.34
2022-09-09T13:14:02.510Z,13.42
2022-09-09T13:16:36.603Z,13.51
2022-09-09T13:19:10.650Z,13.43
2022-09-09T13:21:43.761Z,13.54
2022-09-09T13:24:30.839Z,13.56
2022-09-09T13:27:00.070Z,13.55
2022-09-09T13:29:28.327Z,13.50
2022-09-09T13:32:06.435Z,13.49
2022-09-09T13:34:36.291Z,13.47
2022-09-09T13:37:07.027Z,13.51
2022-09-09T13:39:36.288Z,13.62
2022-09-09T13:42:05.537Z,13.72
2022-09-09T13:44:37.071Z,13.65
2022-09-09T13:47:10.701Z,13.73
2022-09-09T13:49:39.310Z,13.64
2022-09-09T13:52:12.241Z,13.40
2022-09-09T13:54:40.574Z,13.23
2022-09-09T13:57:19.188Z,12.93
2022-09-09T14:00:04.756Z,12.83
2022-09-09T14:02:35.590Z,12.65
2022-09-09T14:05:03.795Z,12.50
2022-09-09T14:07:33.146Z,12.44
2022-09-09T14:10:01.379Z,12.44
2022-09-09T14:12:30.015Z,12.43
2022-09-09T14:14:58.133Z,12.34
2022-09-09T14:17:26.226Z,12.27
2022-09-09T14:19:56.199Z,12.23
2022-09-09T14:22:24.487Z,12.37
2022-09-09T14:24:53.615Z,12.54
2022-09-09T14:27:21.922Z,12.73
2022-09-09T14:29:50.016Z,12.91
2022-09-09T14:32:20.585Z,12.93
2022-09-09T14:34:50.761Z,12.91
2022-09-09T14:37:21.728Z,12.97
2022-09-09T14:39:51.653Z,13.00
2022-09-09T14:42:22.468Z,13.04
2022-09-09T14:44:50.572Z,13.09
2022-09-09T14:47:18.783Z,13.06
2022-09-09T14:49:47.306Z,12.95
2022-09-09T14:52:15.743Z,12.93
2022-09-09T14:54:46.477Z,12.85
2022-09-09T14:57:14.846Z,12.80
2022-09-09T14:59:42.969Z,12.71
2022-09-09T15:02:11.686Z,12.57
2022-09-09T15:04:39.826Z,12.59
2022-09-09T15:07:07.900Z,12.54
2022-09-09T15:09:36.091Z,12.53
2022-09-09T15:12:06.791Z,12.51
2022-09-09T15:14:35.906Z,12.43
2022-09-09T15:17:04.013Z,12.38
2022-09-09T15:19:33.491Z,12.35
2022-09-09T15:22:01.829Z,12.31
2022-09-09T15:24:30.116Z,12.14
2022-09-09T15:26:58.739Z,12.30
2022-09-09T15:29:28.755Z,12.26
2022-09-09T15:31:57.218Z,12.30
2022-09-09T15:34:25.829Z,12.19
2022-09-09T15:36:56.499Z,12.10
2022-09-09T15:39:24.836Z,11.99
2022-09-09T15:41:53.025Z,11.90
2022-09-09T15:44:21.265Z,11.77
2022-09-09T15:46:52.472Z,11.64
2022-09-09T15:49:23.897Z,11.50
2022-09-09T15:51:54.186Z,11.36
2022-09-09T15:54:24.546Z,11.27
2022-09-09T15:56:55.920Z,11.18
2022-09-09T15:59:24.397Z,11.09
2022-09-09T16:01:54.593Z,10.94
2022-09-09T16:04:25.659Z,10.88
2022-09-09T16:06:56.716Z,10.77
2022-09-09T16:09:24.807Z,10.70
2022-09-09T16:11:54.442Z,10.48
2022-09-09T16:14:22.958Z,10.41
2022-09-09T16:16:51.129Z,10.32
2022-09-09T16:19:24.470Z,10.30
2022-09-09T16:21:54.041Z,10.19
2022-09-09T16:24:22.200Z,10.07
2022-09-09T16:26:51.927Z,9.98
2022-09-09T16:29:20.946Z,9.87
2022-09-09T16:31:49.290Z,9.80
2022-09-09T16:34:19.490Z,9.76
2022-09-09T16:36:50.552Z,9.70
2022-09-09T16:39:20.903Z,9.60
2022-09-09T16:41:50.189Z,9.45
2022-09-09T16:44:20.511Z,9.35
2022-09-09T16:46:50.112Z,9.26
2022-09-09T16:49:18.298Z,9.26
2022-09-09T16:51:49.124Z,9.22
2022-09-09T16:54:19.512Z,9.18
2022-09-09T16:56:49.594Z,9.14
2022-09-09T16:59:18.721Z,9.02
2022-09-09T17:01:48.373Z,8.87
2022-09-09T17:04:21.519Z,8.78
2022-09-09T17:06:52.698Z,8.70
2022-09-09T17:09:21.750Z,8.64
2022-09-09T17:11:51.833Z,8.63
2022-09-09T17:14:21.088Z,8.57
2022-09-09T17:16:49.165Z,8.55
2022-09-09T17:19:17.483Z,8.54
2022-09-09T17:22:15.706Z,8.49
2022-09-09T17:24:39.663Z,8.40
2022-09-09T17:27:07.971Z,8.40
2022-09-09T17:29:37.065Z,8.36
2022-09-09T17:32:06.510Z,8.28
2022-09-09T17:34:35.132Z,8.25
2022-09-09T17:37:03.249Z,8.25
2022-09-09T17:39:31.451Z,8.14
2022-09-09T17:42:01.222Z,8.01
2022-09-09T17:44:33.371Z,8.01
2022-09-09T17:47:01.961Z,7.95
2022-09-09T17:49:30.113Z,7.97
2022-09-09T17:51:58.578Z,7.90
2022-09-09T17:54:26.774Z,7.87
2022-09-09T17:56:54.931Z,7.83
2022-09-09T17:59:25.291Z,7.71
2022-09-09T18:01:53.645Z,7.64
2022-09-09T18:04:21.992Z,7.67
2022-09-09T18:06:51.682Z,7.60
2022-09-09T18:09:21.738Z,7.66
2022-09-09T18:11:51.700Z,7.69
2022-09-09T18:14:21.588Z,7.66
2022-09-09T18:16:51.771Z,7.63
2022-09-09T18:19:21.175Z,7.62
2022-09-09T18:21:50.607Z,7.54
2022-09-09T18:24:20.734Z,7.59
2022-09-09T18:26:49.441Z,7.59
2022-09-09T18:29:20.196Z,7.48
2022-09-09T18:31:48.827Z,7.32
2022-09-09T18:34:20.209Z,7.20
2022-09-09T18:36:50.132Z,7.29
2022-09-09T18:39:20.188Z,7.28
2022-09-09T18:41:50.423Z,7.31
2022-09-09T18:44:21.502Z,7.21
2022-09-09T18:46:50.342Z,7.00
2022-09-09T18:49:20.439Z,6.96
2022-09-09T18:51:48.955Z,6.94
2022-09-09T18:54:20.356Z,6.93
2022-09-09T18:56:50.297Z,6.91
2022-09-09T18:59:20.444Z,6.90
2022-09-09T19:01:48.889Z,6.88
2022-09-09T19:04:18.803Z,6.74
2022-09-09T19:06:49.605Z,6.74
2022-09-09T19:09:21.584Z,6.80
2022-09-09T19:11:49.831Z,6.74
2022-09-09T19:14:19.207Z,6.62
2022-09-09T19:16:48.030Z,6.66
2022-09-09T19:19:18.248Z,6.68
2022-09-09T19:21:47.940Z,6.68
2022-09-09T19:24:18.723Z,6.58
2022-09-09T19:26:48.393Z,6.42
2022-09-09T19:29:19.450Z,6.23
2022-09-09T19:32:18.623Z,6.19
2022-09-09T19:34:36.940Z,6.32
2022-09-09T19:37:07.214Z,6.39
2022-09-09T19:39:37.283Z,6.39
2022-09-09T19:42:05.449Z,6.36
2022-09-09T19:44:33.593Z,6.28
2022-09-09T19:47:01.770Z,6.20
2022-09-09T19:49:31.513Z,6.24
2022-09-09T19:51:59.993Z,6.27
2022-09-09T19:54:29.713Z,6.23
2022-09-09T19:56:57.822Z,6.14
2022-09-09T19:59:27.625Z,5.99
2022-09-09T20:01:56.991Z,5.86
2022-09-09T20:04:26.489Z,5.85
2022-09-09T20:06:54.754Z,5.89
2022-09-09T20:09:25.890Z,5.77
2022-09-09T20:11:55.549Z,5.68
2022-09-09T20:14:23.781Z,5.63
2022-09-09T20:16:51.917Z,5.53
2022-09-09T20:19:20.134Z,5.44
2022-09-09T20:21:49.628Z,5.40
2022-09-09T20:24:20.484Z,5.42
2022-09-09T20:26:49.300Z,5.39
2022-09-09T20:29:22.506Z,5.52
2022-09-09T20:31:50.684Z,5.39
2022-09-09T20:34:22.298Z,5.30
2022-09-09T20:36:51.128Z,5.37
2022-09-09T20:39:20.917Z,5.48
2022-09-09T20:41:50.066Z,5.51
2022-09-09T20:44:24.342Z,5.40
2022-09-09T20:46:55.706Z,5.28
2022-09-09T20:49:25.870Z,5.26
2022-09-09T20:51:55.225Z,5.21
2022-09-09T20:54:26.113Z,5.08
2022-09-09T20:56:55.381Z,4.95
2022-09-09T20:59:27.084Z,4.86
2022-09-09T21:01:57.004Z,4.84
2022-09-09T21:04:26.227Z,4.78
2022-09-09T21:06:54.560Z,4.74
2022-09-09T21:09:24.682Z,4.87
2022-09-09T21:11:53.758Z,4.92
2022-09-09T21:14:23.989Z,4.95
2022-09-09T21:16:54.515Z,4.90
2022-09-09T21:19:22.621Z,4.80
2022-09-09T21:21:50.860Z,4.61
2022-09-09T21:24:18.943Z,4.68
2022-09-09T21:26:46.986Z,4.69
2022-09-09T21:29:15.175Z,4.64
2022-09-09T21:31:44.642Z,4.63
2022-09-09T21:34:15.594Z,4.49
2022-09-09T21:36:43.666Z,4.35
2022-09-09T21:39:11.815Z,4.28
2022-09-09T21:41:40.270Z,4.19
2022-09-09T21:44:09.718Z,4.14
2022-09-09T21:46:38.702Z,4.30
2022-09-09T21:49:07.009Z,4.31
2022-09-09T21:51:37.082Z,4.25
2022-09-09T21:54:07.037Z,4.18
2022-09-09T21:56:35.886Z,4.20
2022-09-09T21:59:04.939Z,4.20
2022-09-09T22:01:33.765Z,4.04
2022-09-09T22:04:02.373Z,3.97
2022-09-09T22:06:30.484Z,3.95
2022-09-09T22:09:01.973Z,3.97
2022-09-09T22:11:31.397Z,3.99
2022-09-09T22:13:59.547Z,3.95
2022-09-09T22:16:27.975Z,3.97
2022-09-09T22:18:57.802Z,4.00
2022-09-09T22:21:27.285Z,3.96
2022-09-09T22:23:57.676Z,3.87
2022-09-09T22:26:28.581Z,3.89
2022-09-09T22:28:57.509Z,3.97
2022-09-09T22:31:26.053Z,3.92
2022-09-09T22:33:56.023Z,3.96
2022-09-09T22:36:26.055Z,4.00
2022-09-09T22:38:54.246Z,3.97
2022-09-09T22:41:22.357Z,3.91
2022-09-09T22:43:52.110Z,3.75
2022-09-09T22:46:20.211Z,3.82
2022-09-09T22:48:48.484Z,3.75
2022-09-09T22:51:17.381Z,3.52
2022-09-09T22:53:46.512Z,3.49
2022-09-09T22:56:17.323Z,3.54
2022-09-09T22:58:46.419Z,3.55
2022-09-09T23:01:17.440Z,3.52
2022-09-09T23:03:47.196Z,3.52
2022-09-09T23:06:22.568Z,3.49
2022-09-09T23:08:52.013Z,3.44
2022-09-09T23:11:21.605Z,3.47
2022-09-09T23:13:52.148Z,3.47
2022-09-09T23:16:23.216Z,3.56
2022-09-09T23:18:52.400Z,3.61
2022-09-09T23:21:21.066Z,3.70
2022-09-09T23:23:49.503Z,3.57
2022-09-09T23:26:21.091Z,3.49
2022-09-09T23:28:50.003Z,3.44
2022-09-09T23:31:20.156Z,3.49
2022-09-09T23:33:50.087Z,3.43
2022-09-09T23:36:19.743Z,3.36
2022-09-09T23:38:49.748Z,3.35
2022-09-09T23:41:21.304Z,3.39
2022-09-09T23:43:49.638Z,3.30
2022-09-09T23:46:20.499Z,3.19
2022-09-09T23:48:51.856Z,3.14
2022-09-09T23:51:24.000Z,3.07
2022-09-09T23:53:54.089Z,3.11
2022-09-09T23:56:23.378Z,3.07
2022-09-09T23:58:52.291Z,3.08
